Dell City, Texas
Current Conditions -  °F | °C
As of 9:51 PM on Saturday 20 Dec 2014 (Local Time) from KGDP Reporting Station
Clear Clear  
Wind Chill: 29°   Ceiling: Unl
Heat Index: 39°   Visibility: 10mi
Dew Point: 22°   Wind: 21mph
Humidity: 50%   Direction: 230°SW
Pressure: 30.09"   Gusts: NA
Location:  31.94°N, 105.2°W
Report Text: KGDP 210451Z AUTO 23018KT 10SM CLR 04/M06 A3009 RMK AO2 PK WND 25026/0418 SLP181 T00391056
Loading
Personal Weather Stations






























Interactive Weather Map New forecast layout! Learn more

10-Day Weather Forecast

Advertisements
Track Severe Weather on mobile